Time;durP1;ratioP1;P1;durP2;ratioP2;P2;SDS_P1;SDS_P2;PMS_P1;PMS_P2;Temp;Humidity;BMP_temperature;BMP_pressure;BME280_temperature;BME280_humidity;BME280_pressure;Samples;Min_cycle;Max_cycle;Signal;HPM_P1;HPM_P2
2023/10/14 00:01:28;;;;;;;4.57;3.88;;;;;;;;;;5060687;28;20415;-80
2023/10/14 00:03:55;;;;;;;3.83;3.40;;;;;;;;;;5062159;28;20385;-80
2023/10/14 00:06:21;;;;;;;4.75;3.90;;;;;;;;;;5062136;28;20373;-80
2023/10/14 00:09:11;;;;;;;3.90;3.50;;;;;;;;;;5062635;28;20385;-80
2023/10/14 00:11:35;;;;;;;6.07;4.45;;;;;;;;;;5061556;28;20389;-79
2023/10/14 00:14:09;;;;;;;4.53;3.90;;;;;;;;;;5062448;28;20420;-81
2023/10/14 00:16:36;;;;;;;4.38;3.97;;;;;;;;;;5061855;28;20430;-80
2023/10/14 00:19:09;;;;;;;4.85;3.63;;;;;;;;;;5062356;28;20411;-79
2023/10/14 00:21:35;;;;;;;5.28;3.83;;;;;;;;;;5062405;28;20722;-80
2023/10/14 00:24:02;;;;;;;4.22;3.83;;;;;;;;;;5061814;28;20743;-80
2023/10/14 00:26:29;;;;;;;5.45;3.97;;;;;;;;;;5061898;28;20854;-80
2023/10/14 00:31:40;;;;;;;4.25;3.85;;;;;;;;;;5062425;28;20454;-81
2023/10/14 00:34:07;;;;;;;4.15;3.83;;;;;;;;;;5062088;28;20417;-80
2023/10/14 00:36:34;;;;;;;4.10;3.70;;;;;;;;;;5061700;28;20409;-80
2023/10/14 00:39:13;;;;;;;3.97;3.58;;;;;;;;;;5044561;28;20393;-80
2023/10/14 00:41:39;;;;;;;6.85;4.00;;;;;;;;;;5061968;28;20396;-80
2023/10/14 00:44:05;;;;;;;4.10;3.70;;;;;;;;;;5061332;28;20842;-80
2023/10/14 00:46:33;;;;;;;3.90;3.60;;;;;;;;;;5060913;28;20739;-80
2023/10/14 00:51:55;;;;;;;4.03;3.55;;;;;;;;;;5059237;28;20476;-80
2023/10/14 00:54:43;;;;;;;4.65;4.03;;;;;;;;;;5062478;28;20417;-80
2023/10/14 00:59:45;;;;;;;4.13;3.65;;;;;;;;;;5061641;28;20389;-80
2023/10/14 01:02:11;;;;;;;3.90;3.55;;;;;;;;;;5061478;28;20439;-80
2023/10/14 01:04:47;;;;;;;6.20;4.00;;;;;;;;;;5061823;28;20389;-80
2023/10/14 01:07:13;;;;;;;4.13;3.72;;;;;;;;;;5061547;28;20390;-81
2023/10/14 01:12:21;;;;;;;3.80;3.50;;;;;;;;;;5061281;28;20398;-79
2023/10/14 01:14:52;;;;;;;4.60;3.40;;;;;;;;;;5062149;28;20485;-79
2023/10/14 01:19:54;;;;;;;4.15;3.85;;;;;;;;;;5049752;28;20792;-80
2023/10/14 01:22:20;;;;;;;3.60;3.30;;;;;;;;;;5061842;28;20381;-80
2023/10/14 01:24:46;;;;;;;3.97;3.58;;;;;;;;;;5062327;28;20390;-80
2023/10/14 01:27:13;;;;;;;3.88;3.53;;;;;;;;;;5061212;28;20744;-80
2023/10/14 01:29:41;;;;;;;5.13;3.55;;;;;;;;;;5062355;28;20392;-80
2023/10/14 01:32:37;;;;;;;6.22;3.92;;;;;;;;;;5062113;28;20389;-80
2023/10/14 01:35:13;;;;;;;3.97;3.50;;;;;;;;;;5060921;28;20393;-80
2023/10/14 01:37:40;;;;;;;6.40;4.18;;;;;;;;;;5061421;28;20389;-80
2023/10/14 01:43:05;;;;;;;5.20;3.95;;;;;;;;;;5059563;28;20380;-80
2023/10/14 01:45:32;;;;;;;5.25;3.67;;;;;;;;;;5060047;28;20878;-80
2023/10/14 01:50:38;;;;;;;4.57;3.90;;;;;;;;;;5058258;28;20381;-80
2023/10/14 01:53:10;;;;;;;5.57;4.07;;;;;;;;;;5060083;28;20420;-79
2023/10/14 01:55:37;;;;;;;7.13;3.83;;;;;;;;;;5058984;28;20743;-80
2023/10/14 01:58:03;;;;;;;4.88;4.00;;;;;;;;;;5042393;28;20400;-80
2023/10/14 02:00:35;;;;;;;4.82;4.30;;;;;;;;;;5059170;28;20396;-80
2023/10/14 02:03:06;;;;;;;6.78;4.43;;;;;;;;;;5052235;28;20912;-80
2023/10/14 02:05:34;;;;;;;7.80;4.78;;;;;;;;;;5060072;28;20388;-80
2023/10/14 02:08:00;;;;;;;6.33;4.33;;;;;;;;;;5059437;28;20389;-80
2023/10/14 02:10:27;;;;;;;6.68;4.75;;;;;;;;;;5060733;28;20389;-80
2023/10/14 02:12:56;;;;;;;5.35;4.30;;;;;;;;;;5059716;28;20382;-80
2023/10/14 02:15:24;;;;;;;5.35;4.10;;;;;;;;;;5059661;28;20373;-80
2023/10/14 02:17:50;;;;;;;5.45;4.20;;;;;;;;;;5059391;28;20726;-80
2023/10/14 02:20:28;;;;;;;5.75;4.68;;;;;;;;;;5059379;28;20389;-80
2023/10/14 02:22:57;;;;;;;4.70;4.30;;;;;;;;;;5059409;28;20374;-79
2023/10/14 02:25:27;;;;;;;4.68;4.18;;;;;;;;;;5057475;28;20421;-80
2023/10/14 02:27:54;;;;;;;4.55;3.83;;;;;;;;;;5041732;28;20473;-80
2023/10/14 02:30:20;;;;;;;5.10;4.53;;;;;;;;;;5060301;28;20394;-80
2023/10/14 02:32:48;;;;;;;4.10;3.73;;;;;;;;;;5056005;28;20409;-79
2023/10/14 02:35:15;;;;;;;4.72;4.32;;;;;;;;;;5039305;28;20389;-80
2023/10/14 02:37:41;;;;;;;4.85;4.38;;;;;;;;;;5056402;28;20435;-80
2023/10/14 02:40:24;;;;;;;5.17;4.37;;;;;;;;;;5057643;28;20381;-80
2023/10/14 02:42:57;;;;;;;4.78;4.28;;;;;;;;;;5058275;28;20381;-80
2023/10/14 02:45:23;;;;;;;5.07;4.57;;;;;;;;;;5059114;28;20469;-80
2023/10/14 02:47:49;;;;;;;6.75;4.15;;;;;;;;;;5058907;28;20385;-80
2023/10/14 02:50:22;;;;;;;5.72;4.07;;;;;;;;;;5040541;28;20401;-80
2023/10/14 02:52:49;;;;;;;4.70;4.30;;;;;;;;;;5058437;28;20423;-81
2023/10/14 02:55:21;;;;;;;4.97;4.47;;;;;;;;;;5058523;28;20740;-80
2023/10/14 02:57:47;;;;;;;6.30;4.57;;;;;;;;;;5058018;28;20378;-80
2023/10/14 03:00:30;;;;;;;5.05;4.55;;;;;;;;;;5058001;28;20855;-80
2023/10/14 03:03:02;;;;;;;5.15;4.40;;;;;;;;;;5049687;28;20378;-80
2023/10/14 03:08:15;;;;;;;4.78;4.20;;;;;;;;;;5058517;28;20385;-80
2023/10/14 03:10:59;;;;;;;6.35;4.40;;;;;;;;;;5058213;28;20386;-80
2023/10/14 03:13:29;;;;;;;5.32;4.38;;;;;;;;;;5057685;28;20416;-80
2023/10/14 03:15:56;;;;;;;5.03;4.53;;;;;;;;;;5057751;28;20385;-80
2023/10/14 03:18:30;;;;;;;5.20;4.70;;;;;;;;;;5058130;28;20373;-80
2023/10/14 03:23:27;;;;;;;5.43;4.80;;;;;;;;;;5058912;28;20388;-80
2023/10/14 03:26:00;;;;;;;5.13;4.63;;;;;;;;;;5057693;28;20380;-79
2023/10/14 03:28:27;;;;;;;5.03;4.53;;;;;;;;;;5058322;28;20385;-80
2023/10/14 03:30:58;;;;;;;6.03;4.30;;;;;;;;;;5058459;28;20381;-79
2023/10/14 03:33:24;;;;;;;4.90;4.50;;;;;;;;;;5057733;28;20879;-80
2023/10/14 03:36:03;;;;;;;5.50;4.50;;;;;;;;;;5058568;28;20516;-80
2023/10/14 03:41:10;;;;;;;5.22;4.80;;;;;;;;;;5059196;28;20401;-79
2023/10/14 03:46:11;;;;;;;5.47;4.88;;;;;;;;;;5060327;28;20381;-80
2023/10/14 03:48:45;;;;;;;6.30;5.22;;;;;;;;;;5060105;28;20420;-80
2023/10/14 03:51:12;;;;;;;5.80;5.25;;;;;;;;;;5060222;28;20385;-80
2023/10/14 03:53:38;;;;;;;6.25;5.28;;;;;;;;;;5060493;28;20479;-80
2023/10/14 03:56:04;;;;;;;6.40;5.90;;;;;;;;;;5059871;28;20400;-80
2023/10/14 03:58:31;;;;;;;6.25;5.68;;;;;;;;;;5059629;28;20409;-80
2023/10/14 04:00:58;;;;;;;5.83;5.27;;;;;;;;;;5059587;28;20418;-80
2023/10/14 04:03:34;;;;;;;6.28;5.68;;;;;;;;;;5059134;28;20851;-80
2023/10/14 04:06:01;;;;;;;6.75;5.90;;;;;;;;;;5059384;28;20386;-80
2023/10/14 04:08:40;;;;;;;6.07;5.57;;;;;;;;;;5059144;28;20435;-80
2023/10/14 04:11:13;;;;;;;6.50;5.90;;;;;;;;;;5058648;28;20412;-80
2023/10/14 04:13:50;;;;;;;6.53;5.87;;;;;;;;;;5058978;28;20886;-80
2023/10/14 04:16:17;;;;;;;7.63;5.95;;;;;;;;;;5059304;28;20726;-81
2023/10/14 04:18:46;;;;;;;7.00;6.28;;;;;;;;;;5059911;28;20417;-80
2023/10/14 04:21:25;;;;;;;7.38;5.85;;;;;;;;;;5060097;28;20842;-80
2023/10/14 04:24:54;;;;;;;6.75;6.05;;;;;;;;;;5062827;28;20870;-80
2023/10/14 04:26:49;;;;;;;7.13;6.45;;;;;;;;;;5034441;28;20388;-81
2023/10/14 04:32:07;;;;;;;7.07;6.38;;;;;;;;;;5059359;28;20420;-81
2023/10/14 04:34:37;;;;;;;7.93;6.80;;;;;;;;;;5058989;28;20417;-80
2023/10/14 04:37:07;;;;;;;7.95;6.60;;;;;;;;;;5059638;28;20380;-81
2023/10/14 04:39:42;;;;;;;7.15;6.45;;;;;;;;;;5059175;28;20381;-80
2023/10/14 04:44:59;;;;;;;6.75;6.10;;;;;;;;;;5058989;28;20397;-80
2023/10/14 04:47:37;;;;;;;8.95;6.60;;;;;;;;;;5058182;28;20421;-81
2023/10/14 04:50:10;;;;;;;7.50;6.20;;;;;;;;;;5040914;28;20409;-80
2023/10/14 04:52:37;;;;;;;7.10;6.40;;;;;;;;;;5060209;28;20382;-81
2023/10/14 04:55:25;;;;;;;8.20;7.03;;;;;;;;;;5059399;28;20443;-81
2023/10/14 04:58:06;;;;;;;7.35;6.65;;;;;;;;;;5058788;28;20392;-81
2023/10/14 05:00:42;;;;;;;7.20;6.50;;;;;;;;;;5058946;28;20385;-81
2023/10/14 05:03:09;;;;;;;7.53;6.90;;;;;;;;;;5058627;28;20405;-81
2023/10/14 05:05:38;;;;;;;7.28;6.50;;;;;;;;;;5058677;28;20885;-81
2023/10/14 05:08:05;;;;;;;6.95;6.25;;;;;;;;;;5059046;28;20393;-81
2023/10/14 05:10:31;;;;;;;6.65;6.05;;;;;;;;;;5058042;28;20388;-81
2023/10/14 05:12:57;;;;;;;6.68;6.07;;;;;;;;;;5040643;28;20398;-81
2023/10/14 05:15:27;;;;;;;7.35;6.63;;;;;;;;;;5058814;28;20386;-81
2023/10/14 05:17:56;;;;;;;6.55;5.90;;;;;;;;;;5058584;28;20390;-80
2023/10/14 05:20:47;;;;;;;8.20;6.03;;;;;;;;;;5057851;28;20412;-80
2023/10/14 05:23:16;;;;;;;8.43;6.30;;;;;;;;;;5045108;28;20723;-80
2023/10/14 05:25:43;;;;;;;6.65;5.95;;;;;;;;;;5058155;28;20385;-80
2023/10/14 05:28:10;;;;;;;7.28;5.35;;;;;;;;;;5057690;28;20390;-80
2023/10/14 05:30:38;;;;;;;8.95;5.32;;;;;;;;;;5057830;28;20388;-80
2023/10/14 05:33:08;;;;;;;6.10;5.30;;;;;;;;;;5058140;28;20467;-80
2023/10/14 05:35:38;;;;;;;6.18;5.13;;;;;;;;;;5057694;28;20385;-81
2023/10/14 05:38:09;;;;;;;6.17;5.57;;;;;;;;;;5045780;28;20491;-80
2023/10/14 05:40:36;;;;;;;7.03;5.75;;;;;;;;;;5039623;28;20472;-80
2023/10/14 05:43:02;;;;;;;5.20;4.80;;;;;;;;;;5057604;28;20397;-81
2023/10/14 05:45:31;;;;;;;6.88;5.28;;;;;;;;;;5058251;28;20483;-81
2023/10/14 05:47:57;;;;;;;5.53;5.03;;;;;;;;;;5039837;28;20394;-80
2023/10/14 05:50:24;;;;;;;6.35;5.43;;;;;;;;;;5040123;28;20397;-81
2023/10/14 05:52:49;;;;;;;5.65;4.88;;;;;;;;;;5058242;28;20881;-80
2023/10/14 05:55:24;;;;;;;6.53;4.50;;;;;;;;;;5058024;28;20393;-80
2023/10/14 05:57:51;;;;;;;5.32;4.75;;;;;;;;;;5057809;28;20393;-80
2023/10/14 06:00:23;;;;;;;6.18;4.35;;;;;;;;;;5040030;28;20735;-80
2023/10/14 06:02:50;;;;;;;5.65;4.45;;;;;;;;;;5057573;28;20381;-80
2023/10/14 06:05:16;;;;;;;4.97;4.47;;;;;;;;;;5040033;28;20400;-81
2023/10/14 06:07:46;;;;;;;5.93;4.28;;;;;;;;;;5057340;28;20394;-81
2023/10/14 06:10:12;;;;;;;4.70;4.18;;;;;;;;;;5057632;28;20390;-81
2023/10/14 06:12:39;;;;;;;4.63;4.22;;;;;;;;;;5057556;28;20392;-81
2023/10/14 06:15:09;;;;;;;4.85;4.38;;;;;;;;;;5057650;28;20882;-80
2023/10/14 06:17:38;;;;;;;4.57;4.17;;;;;;;;;;5057772;28;20469;-81
2023/10/14 06:20:05;;;;;;;6.05;4.97;;;;;;;;;;5057244;28;20401;-80
2023/10/14 06:22:31;;;;;;;5.82;4.40;;;;;;;;;;5057079;28;20385;-80
2023/10/14 06:24:57;;;;;;;5.77;5.13;;;;;;;;;;5057288;28;20431;-80
2023/10/14 06:27:24;;;;;;;5.47;4.90;;;;;;;;;;5057584;28;20723;-81
2023/10/14 06:29:51;;;;;;;4.97;4.57;;;;;;;;;;5058317;28;20405;-81
2023/10/14 06:32:18;;;;;;;5.57;5.07;;;;;;;;;;5057701;28;20451;-81
2023/10/14 06:34:46;;;;;;;5.60;5.10;;;;;;;;;;5057228;28;20420;-81
2023/10/14 06:37:12;;;;;;;5.40;5.00;;;;;;;;;;5057558;28;20708;-80
2023/10/14 06:39:40;;;;;;;5.40;4.90;;;;;;;;;;5056860;28;20384;-81
2023/10/14 06:42:06;;;;;;;5.43;4.93;;;;;;;;;;5057129;28;20385;-81
2023/10/14 06:44:32;;;;;;;6.22;4.63;;;;;;;;;;5057712;28;20396;-79
2023/10/14 06:46:59;;;;;;;5.60;4.80;;;;;;;;;;5057091;28;20913;-81
2023/10/14 06:49:32;;;;;;;5.50;5.00;;;;;;;;;;5057552;28;20396;-80
2023/10/14 06:51:58;;;;;;;5.40;4.90;;;;;;;;;;5057127;28;20382;-80
2023/10/14 06:54:30;;;;;;;6.55;4.53;;;;;;;;;;5058014;28;20757;-81
2023/10/14 06:56:56;;;;;;;5.22;4.20;;;;;;;;;;5056687;28;20373;-81
2023/10/14 06:59:22;;;;;;;4.88;4.38;;;;;;;;;;5056949;28;20417;-81
2023/10/14 07:01:48;;;;;;;8.05;4.68;;;;;;;;;;5056609;28;20381;-82
2023/10/14 07:04:16;;;;;;;5.93;4.90;;;;;;;;;;5056807;28;20881;-81
2023/10/14 07:06:47;;;;;;;5.25;4.72;;;;;;;;;;5057328;28;20382;-80
2023/10/14 07:09:23;;;;;;;7.28;4.97;;;;;;;;;;5057021;28;20424;-81
2023/10/14 07:11:49;;;;;;;6.18;4.63;;;;;;;;;;5056789;28;20381;-80
2023/10/14 07:14:18;;;;;;;5.30;4.80;;;;;;;;;;5056221;28;21115;-81
2023/10/14 07:16:45;;;;;;;5.32;4.82;;;;;;;;;;5056000;28;20389;-81
2023/10/14 07:19:11;;;;;;;5.65;4.85;;;;;;;;;;5057606;28;20381;-80
2023/10/14 07:21:37;;;;;;;6.35;4.78;;;;;;;;;;5056789;28;20499;-81
2023/10/14 07:24:06;;;;;;;6.05;5.03;;;;;;;;;;5056175;28;20393;-81
2023/10/14 07:26:36;;;;;;;6.43;5.13;;;;;;;;;;5038565;28;20397;-80
2023/10/14 07:29:03;;;;;;;5.57;5.07;;;;;;;;;;5056594;28;20400;-81
2023/10/14 07:31:31;;;;;;;6.15;4.90;;;;;;;;;;5056116;28;20393;-80
2023/10/14 07:34:03;;;;;;;5.80;4.85;;;;;;;;;;5055803;28;20436;-80
2023/10/14 07:36:32;;;;;;;5.20;4.70;;;;;;;;;;5055596;28;20385;-80
2023/10/14 07:39:19;;;;;;;5.57;5.00;;;;;;;;;;5056174;28;20796;-81
2023/10/14 07:41:50;;;;;;;4.80;4.40;;;;;;;;;;5055331;28;20870;-80
2023/10/14 07:44:17;;;;;;;6.15;5.55;;;;;;;;;;5055780;28;20388;-80
2023/10/14 07:46:43;;;;;;;5.35;4.95;;;;;;;;;;5055812;28;20389;-80
2023/10/14 07:49:09;;;;;;;4.68;4.32;;;;;;;;;;5056352;28;20396;-80
2023/10/14 07:51:34;;;;;;;5.47;4.70;;;;;;;;;;5055819;28;20388;-81
2023/10/14 07:54:00;;;;;;;4.47;4.07;;;;;;;;;;5055580;28;20916;-80
2023/10/14 07:56:27;;;;;;;6.05;4.65;;;;;;;;;;5054305;28;20411;-80
2023/10/14 07:58:53;;;;;;;5.67;4.50;;;;;;;;;;5056038;28;20377;-80
2023/10/14 08:01:22;;;;;;;5.75;4.28;;;;;;;;;;5055487;28;20504;-81
2023/10/14 08:03:48;;;;;;;5.68;5.00;;;;;;;;;;5056280;28;20384;-80
2023/10/14 08:06:17;;;;;;;5.45;4.80;;;;;;;;;;5055938;28;20404;-80
2023/10/14 08:08:47;;;;;;;5.97;4.43;;;;;;;;;;5055956;28;20865;-81
2023/10/14 08:11:13;;;;;;;5.07;4.20;;;;;;;;;;5055736;28;20393;-81
2023/10/14 08:13:43;;;;;;;5.50;4.53;;;;;;;;;;5055350;28;20413;-81
2023/10/14 08:16:11;;;;;;;5.07;4.20;;;;;;;;;;5055321;28;20781;-81
2023/10/14 08:18:41;;;;;;;4.40;4.00;;;;;;;;;;5056128;28;20385;-81
2023/10/14 08:21:09;;;;;;;4.68;3.80;;;;;;;;;;5054799;28;20381;-81
2023/10/14 08:23:36;;;;;;;4.53;4.13;;;;;;;;;;5057450;28;20915;-83
2023/10/14 08:26:03;;;;;;;4.32;3.92;;;;;;;;;;5058472;28;20405;-81
2023/10/14 08:28:32;;;;;;;4.70;3.67;;;;;;;;;;5058675;28;20378;-80
2023/10/14 08:30:59;;;;;;;6.43;4.18;;;;;;;;;;5059100;28;20464;-81
2023/10/14 08:33:28;;;;;;;4.25;3.75;;;;;;;;;;5058727;28;20492;-80
2023/10/14 08:35:56;;;;;;;4.30;3.90;;;;;;;;;;5058775;28;20407;-80
2023/10/14 08:38:22;;;;;;;4.63;4.03;;;;;;;;;;5059041;28;20870;-81
2023/10/14 08:40:51;;;;;;;4.80;4.15;;;;;;;;;;5060074;28;20443;-82
2023/10/14 08:43:30;;;;;;;4.35;3.88;;;;;;;;;;5058768;28;20419;-82
2023/10/14 08:45:59;;;;;;;5.53;3.80;;;;;;;;;;5058632;28;20385;-81
2023/10/14 08:48:27;;;;;;;4.60;3.60;;;;;;;;;;5058437;28;20456;-80
2023/10/14 08:50:57;;;;;;;4.45;3.70;;;;;;;;;;5058764;28;20436;-81
2023/10/14 08:53:24;;;;;;;5.03;3.40;;;;;;;;;;5059075;28;20449;-80
2023/10/14 08:55:52;;;;;;;4.32;3.92;;;;;;;;;;5058470;28;21806;-80
2023/10/14 08:58:18;;;;;;;4.95;3.72;;;;;;;;;;5058179;28;20414;-82
2023/10/14 09:00:45;;;;;;;4.35;3.92;;;;;;;;;;5057313;28;20447;-82
2023/10/14 09:03:11;;;;;;;4.07;3.72;;;;;;;;;;5040366;28;20385;-82
2023/10/14 09:05:40;;;;;;;6.25;3.78;;;;;;;;;;5057762;28;20381;-82
2023/10/14 09:08:06;;;;;;;4.50;3.83;;;;;;;;;;5039757;28;20472;-82
2023/10/14 09:10:33;;;;;;;4.03;3.63;;;;;;;;;;5057256;28;20411;-82
2023/10/14 09:13:06;;;;;;;4.00;3.60;;;;;;;;;;5057478;28;20712;-82
2023/10/14 09:15:33;;;;;;;4.78;3.60;;;;;;;;;;5057484;28;20388;-82
2023/10/14 09:18:00;;;;;;;4.50;3.53;;;;;;;;;;5056627;28;20384;-82
2023/10/14 09:20:29;;;;;;;3.60;3.30;;;;;;;;;;5057467;28;20389;-82
2023/10/14 09:23:14;;;;;;;4.80;3.30;;;;;;;;;;5057999;28;20383;-82
2023/10/14 09:25:59;;;;;;;4.30;3.40;;;;;;;;;;5057053;28;20442;-83
2023/10/14 09:28:29;;;;;;;4.50;3.40;;;;;;;;;;5057279;28;20369;-82
2023/10/14 09:30:56;;;;;;;5.13;3.30;;;;;;;;;;5057295;28;20847;-83
2023/10/14 09:33:27;;;;;;;3.50;3.20;;;;;;;;;;5057088;28;20420;-84
2023/10/14 09:35:53;;;;;;;4.40;3.40;;;;;;;;;;5057053;28;20477;-82
2023/10/14 09:38:22;;;;;;;4.05;3.17;;;;;;;;;;5056782;28;20468;-82
2023/10/14 09:40:53;;;;;;;3.75;3.15;;;;;;;;;;5039169;28;20397;-82
2023/10/14 09:43:20;;;;;;;4.10;3.58;;;;;;;;;;5055958;28;20392;-82
2023/10/14 09:45:48;;;;;;;4.30;3.20;;;;;;;;;;5057020;28;20389;-82
2023/10/14 09:48:15;;;;;;;3.92;3.40;;;;;;;;;;5057125;28;20804;-82
2023/10/14 09:50:42;;;;;;;3.97;3.45;;;;;;;;;;5039179;28;20443;-82
2023/10/14 09:53:09;;;;;;;5.07;3.42;;;;;;;;;;5056718;28;20420;-82
2023/10/14 09:55:37;;;;;;;4.97;3.10;;;;;;;;;;5056855;28;20394;-83
2023/10/14 09:58:04;;;;;;;3.80;3.42;;;;;;;;;;5056904;28;20386;-82
2023/10/14 10:00:33;;;;;;;4.00;3.60;;;;;;;;;;5057207;28;20472;-82
2023/10/14 10:03:00;;;;;;;3.60;3.30;;;;;;;;;;5049872;28;20388;-82
2023/10/14 10:05:36;;;;;;;4.40;3.63;;;;;;;;;;5057111;28;20395;-82
2023/10/14 10:08:18;;;;;;;4.32;3.60;;;;;;;;;;5040022;28;20392;-83
2023/10/14 10:10:44;;;;;;;4.05;3.65;;;;;;;;;;5056628;28;20878;-83
2023/10/14 10:13:12;;;;;;;5.15;4.28;;;;;;;;;;5057445;28;20460;-83
2023/10/14 10:15:40;;;;;;;4.85;4.40;;;;;;;;;;5056888;28;20385;-82
2023/10/14 10:18:12;;;;;;;5.28;4.63;;;;;;;;;;5056825;28;20377;-83
2023/10/14 10:20:41;;;;;;;6.85;4.63;;;;;;;;;;5056677;28;20389;-82
2023/10/14 10:23:09;;;;;;;5.32;4.80;;;;;;;;;;5056849;28;20478;-82
2023/10/14 10:25:39;;;;;;;5.57;4.45;;;;;;;;;;5039039;28;20393;-83
2023/10/14 10:28:25;;;;;;;6.93;4.78;;;;;;;;;;5038965;28;20384;-82
2023/10/14 10:30:52;;;;;;;5.10;4.60;;;;;;;;;;5038505;28;20901;-82
2023/10/14 10:33:18;;;;;;;5.20;4.70;;;;;;;;;;5057335;28;20794;-84
2023/10/14 10:36:03;;;;;;;5.13;4.22;;;;;;;;;;5057021;28;20384;-84
2023/10/14 10:38:30;;;;;;;4.65;3.63;;;;;;;;;;5038758;28;20393;-84
2023/10/14 10:41:14;;;;;;;5.45;4.15;;;;;;;;;;5056121;28;20411;-84
2023/10/14 10:43:41;;;;;;;5.50;4.00;;;;;;;;;;5043047;28;20431;-84
2023/10/14 10:46:26;;;;;;;4.82;4.20;;;;;;;;;;5055819;28;20464;-83
2023/10/14 10:48:52;;;;;;;4.25;3.20;;;;;;;;;;5055555;28;20468;-84
2023/10/14 10:51:21;;;;;;;4.63;3.10;;;;;;;;;;5037568;28;20409;-84
2023/10/14 10:53:49;;;;;;;3.75;2.60;;;;;;;;;;5026629;28;20530;-84
2023/10/14 10:56:15;;;;;;;5.97;2.80;;;;;;;;;;5057382;28;20533;-84
2023/10/14 10:58:41;;;;;;;5.05;2.80;;;;;;;;;;5055800;28;20385;-83
2023/10/14 11:01:08;;;;;;;5.18;3.17;;;;;;;;;;5039314;28;20378;-84
2023/10/14 11:03:34;;;;;;;3.97;2.80;;;;;;;;;;5038120;28;20374;-83
2023/10/14 11:06:00;;;;;;;4.70;3.25;;;;;;;;;;5056359;28;20381;-84
2023/10/14 11:08:26;;;;;;;6.18;3.40;;;;;;;;;;5055772;28;20396;-83
2023/10/14 11:10:53;;;;;;;4.30;3.13;;;;;;;;;;5055939;28;20393;-84
2023/10/14 11:13:19;;;;;;;4.35;3.30;;;;;;;;;;5056447;28;20373;-83
2023/10/14 11:15:47;;;;;;;4.95;3.63;;;;;;;;;;5055660;28;20404;-84
2023/10/14 11:18:13;;;;;;;5.65;3.83;;;;;;;;;;5054888;28;20862;-84
2023/10/14 11:20:46;;;;;;;4.38;3.10;;;;;;;;;;5055641;28;20385;-84
2023/10/14 11:23:12;;;;;;;5.20;3.40;;;;;;;;;;5037676;28;20381;-83
2023/10/14 11:25:42;;;;;;;4.85;2.97;;;;;;;;;;5055602;28;20389;-84
2023/10/14 11:28:10;;;;;;;5.20;3.33;;;;;;;;;;5055676;28;20385;-84
2023/10/14 11:30:44;;;;;;;3.83;3.15;;;;;;;;;;5055983;28;20780;-83
2023/10/14 11:33:14;;;;;;;5.10;2.90;;;;;;;;;;5056484;28;20381;-83
2023/10/14 11:35:40;;;;;;;7.03;3.05;;;;;;;;;;5056842;28;20390;-83
2023/10/14 11:38:13;;;;;;;4.77;3.27;;;;;;;;;;5057729;28;20380;-83
2023/10/14 11:40:47;;;;;;;4.55;2.97;;;;;;;;;;5056478;28;20385;-84
2023/10/14 11:43:13;;;;;;;4.25;3.00;;;;;;;;;;5038656;28;20416;-83
2023/10/14 11:45:44;;;;;;;4.20;3.00;;;;;;;;;;5056597;28;20389;-84
2023/10/14 11:48:20;;;;;;;4.95;2.70;;;;;;;;;;5056896;28;20461;-83
2023/10/14 11:50:47;;;;;;;5.63;2.77;;;;;;;;;;5056639;28;20468;-83
2023/10/14 11:53:22;;;;;;;4.10;3.00;;;;;;;;;;5058026;28;20400;-83
2023/10/14 11:55:48;;;;;;;4.82;2.78;;;;;;;;;;5057390;28;20408;-84
2023/10/14 11:58:15;;;;;;;4.00;3.00;;;;;;;;;;5060445;28;20391;-83
2023/10/14 12:00:41;;;;;;;3.70;2.45;;;;;;;;;;5042087;28;20780;-84
2023/10/14 12:03:07;;;;;;;3.88;2.47;;;;;;;;;;5060025;28;20377;-84
2023/10/14 12:05:39;;;;;;;3.67;2.35;;;;;;;;;;5059201;28;20773;-84
2023/10/14 12:08:08;;;;;;;3.38;2.47;;;;;;;;;;5041276;28;20442;-84
2023/10/14 12:10:34;;;;;;;3.47;2.38;;;;;;;;;;5058808;28;20377;-84
2023/10/14 12:13:00;;;;;;;3.20;2.33;;;;;;;;;;5059487;28;20401;-84
2023/10/14 12:15:27;;;;;;;2.90;2.40;;;;;;;;;;5059745;28;20477;-84
2023/10/14 12:17:55;;;;;;;3.80;2.20;;;;;;;;;;5060055;28;20381;-83
2023/10/14 12:20:22;;;;;;;3.20;1.90;;;;;;;;;;5042045;28;20736;-84
2023/10/14 12:22:49;;;;;;;2.55;2.10;;;;;;;;;;5060133;28;20468;-84
2023/10/14 12:25:17;;;;;;;3.90;2.28;;;;;;;;;;5042414;28;20527;-84
2023/10/14 12:27:44;;;;;;;2.92;2.30;;;;;;;;;;5059636;28;20377;-85
2023/10/14 12:30:28;;;;;;;3.53;2.08;;;;;;;;;;5040618;28;20390;-84
2023/10/14 12:32:54;;;;;;;3.00;2.00;;;;;;;;;;5058605;28;20727;-84
2023/10/14 12:35:27;;;;;;;2.63;1.65;;;;;;;;;;5058286;28;20484;-84
2023/10/14 12:37:55;;;;;;;2.90;1.70;;;;;;;;;;5040666;28;20374;-84
2023/10/14 12:40:29;;;;;;;2.50;1.80;;;;;;;;;;5059083;28;20734;-84
2023/10/14 12:43:00;;;;;;;3.60;1.85;;;;;;;;;;5040366;28;20435;-84
2023/10/14 12:45:27;;;;;;;2.38;1.80;;;;;;;;;;5040379;28;20393;-84
2023/10/14 12:47:58;;;;;;;2.30;2.07;;;;;;;;;;5059168;28;20397;-84
2023/10/14 12:50:25;;;;;;;2.78;1.70;;;;;;;;;;5040571;28;20381;-84
2023/10/14 12:53:03;;;;;;;2.83;1.50;;;;;;;;;;5058503;28;20382;-84
2023/10/14 12:55:30;;;;;;;4.28;1.98;;;;;;;;;;5058330;28;20393;-83
2023/10/14 12:57:57;;;;;;;2.42;1.45;;;;;;;;;;5058990;28;20384;-84
2023/10/14 13:00:29;;;;;;;2.70;1.58;;;;;;;;;;5058514;28;20373;-83
2023/10/14 13:02:57;;;;;;;2.60;1.80;;;;;;;;;;5049570;28;20493;-84
2023/10/14 13:05:25;;;;;;;3.03;1.83;;;;;;;;;;5058029;28;20815;-84
2023/10/14 13:07:52;;;;;;;2.42;1.70;;;;;;;;;;5057314;28;20393;-84
2023/10/14 13:10:18;;;;;;;2.78;1.80;;;;;;;;;;5057655;28;20453;-83
2023/10/14 13:12:55;;;;;;;2.65;1.83;;;;;;;;;;5059689;28;20401;-83
2023/10/14 13:15:25;;;;;;;3.83;1.80;;;;;;;;;;5060814;28;20874;-84
2023/10/14 13:17:58;;;;;;;5.32;2.22;;;;;;;;;;5061035;28;20439;-84
2023/10/14 13:20:31;;;;;;;5.07;1.90;;;;;;;;;;5060314;28;20373;-83
2023/10/14 13:22:58;;;;;;;1.98;0.82;;;;;;;;;;5058975;28;20394;-84
2023/10/14 13:25:25;;;;;;;1.60;0.80;;;;;;;;;;5058250;28;20382;-84
2023/10/14 13:27:51;;;;;;;0.50;0.40;;;;;;;;;;5057710;28;20388;-84
2023/10/14 13:30:22;;;;;;;3.10;0.30;;;;;;;;;;5057569;28;20404;-84
2023/10/14 13:32:51;;;;;;;0.40;0.20;;;;;;;;;;5057071;28;20397;-84
2023/10/14 13:35:17;;;;;;;0.80;0.25;;;;;;;;;;5057990;28;20833;-84
2023/10/14 13:37:43;;;;;;;0.32;0.20;;;;;;;;;;5057039;28;20457;-84
2023/10/14 13:40:10;;;;;;;0.35;0.20;;;;;;;;;;5057363;28;20377;-84
2023/10/14 13:42:36;;;;;;;1.10;0.20;;;;;;;;;;5058594;28;20803;-84
2023/10/14 13:45:04;;;;;;;0.05;0.05;;;;;;;;;;5057859;28;20420;-84
2023/10/14 13:47:33;;;;;;;0.28;0.17;;;;;;;;;;5041131;28;20393;-84
2023/10/14 13:49:59;;;;;;;0.90;0.13;;;;;;;;;;5025620;28;20385;-84
2023/10/14 13:52:26;;;;;;;0.10;0.10;;;;;;;;;;5060375;28;20782;-84
2023/10/14 13:54:53;;;;;;;0.30;0.10;;;;;;;;;;5058587;28;20439;-83
2023/10/14 13:57:19;;;;;;;0.20;0.10;;;;;;;;;;5041851;28;20492;-84
2023/10/14 13:59:46;;;;;;;0.00;0.00;;;;;;;;;;5058402;28;20892;-84
2023/10/14 14:02:12;;;;;;;0.10;0.00;;;;;;;;;;5057113;28;20885;-83
2023/10/14 14:04:38;;;;;;;0.60;0.08;;;;;;;;;;5056892;28;20385;-83
2023/10/14 14:07:06;;;;;;;0.80;0.20;;;;;;;;;;5056640;28;20385;-83
2023/10/14 14:09:32;;;;;;;0.20;0.17;;;;;;;;;;5056991;28;20384;-83
2023/10/14 14:11:58;;;;;;;0.28;0.20;;;;;;;;;;5056900;28;20389;-83
2023/10/14 14:14:24;;;;;;;0.10;0.10;;;;;;;;;;5056398;28;20448;-83
2023/10/14 14:16:50;;;;;;;0.10;0.10;;;;;;;;;;5056665;28;20416;-83
2023/10/14 14:19:19;;;;;;;0.30;0.10;;;;;;;;;;5055558;28;20393;-83
2023/10/14 14:21:46;;;;;;;0.13;0.13;;;;;;;;;;5056836;28;20373;-83
2023/10/14 14:24:12;;;;;;;0.10;0.10;;;;;;;;;;5044255;28;20383;-83
2023/10/14 14:26:38;;;;;;;0.10;0.10;;;;;;;;;;5063424;28;20928;-83
2023/10/14 14:29:09;;;;;;;0.10;0.10;;;;;;;;;;5056255;28;20389;-83
2023/10/14 14:31:35;;;;;;;0.40;0.15;;;;;;;;;;5056327;28;20389;-83
2023/10/14 14:34:01;;;;;;;0.00;0.00;;;;;;;;;;5057694;28;20428;-85
2023/10/14 14:36:27;;;;;;;0.20;0.10;;;;;;;;;;5058950;28;20768;-85
2023/10/14 14:38:54;;;;;;;0.30;0.10;;;;;;;;;;5058311;28;20389;-85
2023/10/14 14:41:25;;;;;;;0.00;0.00;;;;;;;;;;5058179;28;20382;-84
2023/10/14 14:43:51;;;;;;;0.20;0.20;;;;;;;;;;5057947;28;20378;-85
2023/10/14 14:46:18;;;;;;;0.25;0.20;;;;;;;;;;5048753;28;20379;-85
2023/10/14 14:48:44;;;;;;;0.10;0.10;;;;;;;;;;5053886;28;20410;-85
2023/10/14 14:51:11;;;;;;;0.10;0.10;;;;;;;;;;5047585;28;20389;-85
2023/10/14 14:53:37;;;;;;;0.10;0.10;;;;;;;;;;5055823;28;20398;-85
2023/10/14 14:56:10;;;;;;;0.10;0.05;;;;;;;;;;5043599;28;20430;-86
2023/10/14 14:58:36;;;;;;;0.10;0.10;;;;;;;;;;5042508;28;20391;-85
2023/10/14 15:01:03;;;;;;;0.10;0.00;;;;;;;;;;5053896;28;20843;-85
2023/10/14 15:03:29;;;;;;;0.20;0.20;;;;;;;;;;5055810;28;20391;-85
2023/10/14 15:05:55;;;;;;;0.10;0.10;;;;;;;;;;5062056;28;20405;-85
2023/10/14 15:08:23;;;;;;;0.10;0.10;;;;;;;;;;5062040;28;20377;-86
2023/10/14 15:10:50;;;;;;;0.60;0.20;;;;;;;;;;5041704;28;20396;-85
2023/10/14 15:13:17;;;;;;;1.70;0.10;;;;;;;;;;5056514;28;20384;-85
2023/10/14 15:15:43;;;;;;;0.10;0.10;;;;;;;;;;5061140;28;20389;-87
2023/10/14 15:18:10;;;;;;;0.00;0.00;;;;;;;;;;5060113;28;20874;-86
2023/10/14 15:20:37;;;;;;;0.10;0.10;;;;;;;;;;5058439;28;20381;-85
2023/10/14 15:23:03;;;;;;;0.40;0.20;;;;;;;;;;5058409;28;20388;-84
2023/10/14 15:25:36;;;;;;;0.20;0.20;;;;;;;;;;5059576;28;20424;-85
2023/10/14 15:28:02;;;;;;;0.80;0.20;;;;;;;;;;5056989;28;20393;-85
2023/10/14 15:30:28;;;;;;;0.10;0.10;;;;;;;;;;5059434;28;20437;-85